EDDM/MUC METAR and TAF weather

Enter ICAO airport designator
Station Type Date Time Source
EDDM METAR 2019/02/23 16:50 UTC NOAA

EDDM 231650Z 07007KT CAVOK 02/M13 Q1038 NOSIG


Station Type Date Time Source
EDDM Decoded METAR 2019/02/23 16:50 UTC NOAA

Munchen, Germany (EDDM) 48-21N 011-47E
Feb 23, 2019 - 11:50 AM EST / 2019.02.23 1650 UTC
Wind: from the ENE (070 degrees) at 8 MPH (7 KT):0
Visibility: greater than 7 mile(s):0
Temperature: 35 F (2 C)
Windchill: 28 F (-2 C):1
Dew Point: 8 F (-13 C)
Relative Humidity: 31%
Pressure (altimeter): 30.65 in. Hg (1038 hPa)
ob: EDDM 231650Z 07007KT CAVOK 02/M13 Q1038 NOSIG
cycle: 17

Station Type Date Time Source
EDDM TAF 2019/02/23 12:27 UTC NOAA

TAF EDDM 231100Z 2312/2418 07012KT CAVOK
TEMPO 2312/2314 08015G25KT
BECMG 2314/2316 07007KT


Example: see airport list